createdAt,value
2023-04-26T00:02:46.714Z,98469.31
2023-04-26T00:05:48.987Z,98475.59
2023-04-26T00:08:51.171Z,98479.97
2023-04-26T00:11:54.303Z,98476.44
2023-04-26T00:14:55.810Z,98479.09
2023-04-26T00:17:57.368Z,98475.59
2023-04-26T00:20:59.042Z,98480.84
2023-04-26T00:24:00.652Z,98479.97
2023-04-26T00:27:08.998Z,98478.28
2023-04-26T00:30:11.342Z,98479.16
2023-04-26T00:33:12.997Z,98475.69
2023-04-26T00:36:15.474Z,98470.44
2023-04-26T00:39:17.091Z,98473.09
2023-04-26T00:42:20.062Z,98475.75
2023-04-26T00:45:21.690Z,98477.53
2023-04-26T00:48:23.601Z,98474.03
2023-04-26T00:51:25.209Z,98474.16
2023-04-26T00:54:26.746Z,98473.31
2023-04-26T00:57:30.510Z,98469.00
2023-04-26T01:00:32.458Z,98473.44
2023-04-26T01:03:34.557Z,98472.53
2023-04-26T01:06:38.441Z,98483.09
2023-04-26T01:09:40.728Z,98480.47
2023-04-26T01:12:43.755Z,98481.38
2023-04-26T01:15:45.918Z,98480.50
2023-04-26T01:18:51.093Z,98485.81
2023-04-26T01:21:53.296Z,98487.53
2023-04-26T01:24:58.079Z,98491.94
2023-04-26T01:27:59.942Z,98487.63
2023-04-26T01:31:01.659Z,98488.53
2023-04-26T01:34:05.974Z,98481.53
2023-04-26T01:37:07.733Z,98478.91
2023-04-26T01:40:11.419Z,98480.69
2023-04-26T01:43:13.056Z,98485.97
2023-04-26T01:46:14.676Z,98480.78
2023-04-26T01:49:16.513Z,98485.16
2023-04-26T01:52:18.056Z,98478.16
2023-04-26T01:55:22.304Z,98476.41
2023-04-26T01:58:23.914Z,98481.69
2023-04-26T02:01:25.687Z,98472.06
2023-04-26T02:04:28.398Z,98470.34
2023-04-26T02:07:29.948Z,98473.00
2023-04-26T02:10:33.616Z,98473.03
2023-04-26T02:13:35.406Z,98480.00
2023-04-26T02:16:37.150Z,98484.47
2023-04-26T02:19:38.762Z,98480.09
2023-04-26T02:22:40.490Z,98478.34
2023-04-26T02:25:45.655Z,98479.31
2023-04-26T02:28:47.219Z,98482.84
2023-04-26T02:31:48.871Z,98478.47
2023-04-26T02:34:50.672Z,98480.25
2023-04-26T02:37:52.454Z,98478.53
2023-04-26T02:40:59.560Z,98482.91
2023-04-26T02:44:01.375Z,98490.88
2023-04-26T02:47:03.236Z,98482.09
2023-04-26T02:50:05.454Z,98491.78
2023-04-26T02:53:07.003Z,98484.78
2023-04-26T02:56:10.328Z,98476.00
2023-04-26T02:59:14.047Z,98476.88
2023-04-26T03:02:15.618Z,98470.75
2023-04-26T03:05:17.557Z,98481.31
2023-04-26T03:08:19.074Z,98480.44
2023-04-26T03:11:22.144Z,98483.13
2023-04-26T03:14:23.797Z,98481.38
2023-04-26T03:17:26.042Z,98490.16
2023-04-26T03:20:27.946Z,98484.94
2023-04-26T03:23:29.903Z,98482.31
2023-04-26T03:26:33.131Z,98481.50
2023-04-26T03:29:34.985Z,98483.25
2023-04-26T03:32:36.632Z,98474.50
2023-04-26T03:35:38.158Z,98482.44
2023-04-26T03:38:40.044Z,98478.94
2023-04-26T03:41:43.233Z,98484.22
2023-04-26T03:44:47.695Z,98480.69
2023-04-26T03:47:50.040Z,98479.84
2023-04-26T03:50:51.877Z,98477.25
2023-04-26T03:53:53.448Z,98478.13
2023-04-26T03:56:56.403Z,98475.53
2023-04-26T03:59:58.735Z,98477.31
2023-04-26T04:03:01.004Z,98468.59
2023-04-26T04:06:02.716Z,98470.31
2023-04-26T04:09:05.713Z,98479.97
2023-04-26T04:12:08.702Z,98474.75
2023-04-26T04:15:10.486Z,98474.78
2023-04-26T04:18:15.057Z,98474.78
2023-04-26T04:21:16.702Z,98472.16
2023-04-26T04:24:20.047Z,98474.75
2023-04-26T04:27:23.123Z,98475.59
2023-04-26T04:30:26.339Z,98484.38
2023-04-26T04:33:28.663Z,98479.13
2023-04-26T04:36:31.834Z,98483.47
2023-04-26T04:39:33.515Z,98491.38
2023-04-26T04:42:36.468Z,98488.72
2023-04-26T04:45:40.845Z,98490.50
2023-04-26T04:48:43.335Z,98494.91
2023-04-26T04:51:45.627Z,98506.25
2023-04-26T04:54:47.558Z,98511.47
2023-04-26T04:57:51.704Z,98500.94
2023-04-26T05:00:56.801Z,98502.66
2023-04-26T05:04:01.985Z,98507.03
2023-04-26T05:07:03.804Z,98508.72
2023-04-26T05:10:06.063Z,98516.53
2023-04-26T05:13:09.268Z,98512.94
2023-04-26T05:16:11.553Z,98509.41
2023-04-26T05:19:13.781Z,98509.28
2023-04-26T05:22:21.166Z,98518.06
2023-04-26T05:25:23.121Z,98517.97
2023-04-26T05:28:33.252Z,98518.72
2023-04-26T05:32:01.209Z,98521.19
2023-04-26T05:35:29.070Z,98521.97
2023-04-26T05:38:30.914Z,98525.34
2023-04-26T05:41:32.754Z,98523.50
2023-04-26T05:44:36.107Z,98526.16
2023-04-26T05:47:37.901Z,98528.84
2023-04-26T05:50:40.144Z,98526.97
2023-04-26T05:53:41.945Z,98523.31
2023-04-26T05:56:43.725Z,98535.44
2023-04-26T05:59:47.103Z,98540.75
2023-04-26T06:02:48.786Z,98530.03
2023-04-26T06:05:52.528Z,98529.75
2023-04-26T06:08:56.956Z,98538.38
2023-04-26T06:11:59.441Z,98534.94
2023-04-26T06:15:02.813Z,98533.22
2023-04-26T06:18:07.024Z,98536.69
2023-04-26T06:21:08.815Z,98540.06
2023-04-26T06:24:11.625Z,98541.78
2023-04-26T06:27:13.223Z,98543.38
2023-04-26T06:30:20.383Z,98552.16
2023-04-26T06:33:23.062Z,98552.97
2023-04-26T06:36:24.634Z,98550.56
2023-04-26T06:39:26.330Z,98553.91
2023-04-26T06:42:28.162Z,98558.31
2023-04-26T06:45:54.127Z,98560.81
2023-04-26T06:48:56.384Z,98562.56
2023-04-26T06:51:59.783Z,98569.41
2023-04-26T06:55:01.503Z,98562.81
2023-04-26T06:58:03.520Z,98562.34
2023-04-26T07:01:08.511Z,98570.94
2023-04-26T07:04:10.913Z,98573.59
2023-04-26T07:07:13.784Z,98572.53
2023-04-26T07:10:15.450Z,98568.09
2023-04-26T07:13:17.045Z,98568.75
2023-04-26T07:16:20.020Z,98571.91
2023-04-26T07:19:21.572Z,98568.97
2023-04-26T07:22:23.613Z,98575.69
2023-04-26T07:25:25.550Z,98571.84
2023-04-26T07:28:27.844Z,98576.06
2023-04-26T07:31:32.299Z,98571.13
2023-04-26T07:34:34.081Z,98572.25
2023-04-26T07:37:35.626Z,98576.66
2023-04-26T07:40:37.226Z,98573.06
2023-04-26T07:43:39.252Z,98572.72
2023-04-26T07:46:42.387Z,98571.56
2023-04-26T07:49:45.744Z,98586.31
2023-04-26T07:52:48.753Z,98575.41
2023-04-26T07:55:51.434Z,98574.25
2023-04-26T07:58:53.764Z,98573.78
2023-04-26T08:01:57.339Z,98568.78
2023-04-26T08:04:59.076Z,98575.19
2023-04-26T08:08:01.966Z,98569.91
2023-04-26T08:11:07.179Z,98561.69
2023-04-26T08:14:08.686Z,98568.31
2023-04-26T08:17:12.181Z,98566.25
2023-04-26T08:20:14.631Z,98566.88
2023-04-26T08:23:16.180Z,98566.44
2023-04-26T08:26:18.063Z,98567.25
2023-04-26T08:29:20.350Z,98564.31
2023-04-26T08:32:23.295Z,98562.09
2023-04-26T08:35:24.800Z,98566.75
2023-04-26T08:38:26.711Z,98569.38
2023-04-26T08:41:28.787Z,98588.44
2023-04-26T08:44:34.048Z,98571.34
2023-04-26T08:47:40.063Z,98581.88
2023-04-26T08:50:43.151Z,98586.78
2023-04-26T08:53:45.595Z,98585.84
2023-04-26T08:56:47.167Z,98588.91
2023-04-26T08:59:50.139Z,98590.88
2023-04-26T09:02:53.989Z,98587.28
2023-04-26T09:05:55.895Z,98587.31
2023-04-26T09:08:58.097Z,98589.22
2023-04-26T09:12:00.444Z,98591.75
2023-04-26T09:15:02.257Z,98593.09
2023-04-26T09:18:20.695Z,98586.63
2023-04-26T09:21:23.134Z,98581.19
2023-04-26T09:24:24.873Z,98587.44
2023-04-26T09:27:34.281Z,98584.34
2023-04-26T09:30:39.326Z,98587.22
2023-04-26T09:33:55.679Z,98587.44
2023-04-26T09:36:58.611Z,98592.91
2023-04-26T09:40:00.448Z,98589.41
2023-04-26T09:43:03.133Z,98595.31
2023-04-26T09:46:04.932Z,98590.56
2023-04-26T09:49:06.632Z,98593.09
2023-04-26T09:52:09.694Z,98590.09
2023-04-26T09:55:19.044Z,98578.38
2023-04-26T09:58:32.990Z,98588.72
2023-04-26T10:01:35.060Z,98593.41
2023-04-26T10:04:37.192Z,98587.41
2023-04-26T10:07:41.584Z,98584.50
2023-04-26T10:10:43.946Z,98593.59
2023-04-26T10:13:45.674Z,98593.69
2023-04-26T10:16:48.110Z,98595.09
2023-04-26T10:19:53.537Z,98601.50
2023-04-26T10:23:01.878Z,98596.38
2023-04-26T10:26:03.525Z,98588.41
2023-04-26T10:29:05.348Z,98585.44
2023-04-26T10:32:17.863Z,98579.19
2023-04-26T10:35:20.086Z,98572.66
2023-04-26T10:38:23.048Z,98571.25
2023-04-26T10:41:29.634Z,98582.44
2023-04-26T10:44:38.999Z,98574.00
2023-04-26T10:47:40.972Z,98569.41
2023-04-26T10:50:57.885Z,98562.75
2023-04-26T10:54:05.101Z,98565.81
2023-04-26T10:57:07.473Z,98564.50
2023-04-26T11:00:17.166Z,98564.13
2023-04-26T11:03:19.203Z,98561.53
2023-04-26T11:06:23.270Z,98561.69
2023-04-26T11:09:37.725Z,98557.03
2023-04-26T11:12:41.698Z,98563.78
2023-04-26T11:15:43.319Z,98564.50
2023-04-26T11:18:46.077Z,98562.25
2023-04-26T11:21:47.657Z,98562.34
2023-04-26T11:24:52.517Z,98564.31
2023-04-26T11:27:57.704Z,98561.53
2023-04-26T11:30:59.632Z,98572.22
2023-04-26T11:34:03.722Z,98573.78
2023-04-26T11:37:05.994Z,98579.09
2023-04-26T11:40:14.117Z,98574.22
2023-04-26T11:43:16.231Z,98592.22
2023-04-26T11:46:21.945Z,98586.59
2023-04-26T11:49:24.115Z,98594.19
2023-04-26T11:52:26.528Z,98591.75
2023-04-26T11:55:32.091Z,98591.03
2023-04-26T11:58:33.708Z,98590.66
2023-04-26T12:01:35.230Z,98593.66
2023-04-26T12:04:38.009Z,98589.03
2023-04-26T12:07:39.754Z,98590.19
2023-04-26T12:10:43.118Z,98589.00
2023-04-26T12:13:45.538Z,98596.84
2023-04-26T12:16:47.457Z,98594.66
2023-04-26T12:19:49.901Z,98600.63
2023-04-26T12:23:02.141Z,98604.28
2023-04-26T12:26:05.610Z,98598.97
2023-04-26T12:29:07.113Z,98595.53
2023-04-26T12:32:08.900Z,98593.25
2023-04-26T12:35:10.482Z,98592.25
2023-04-26T12:38:12.589Z,98586.22
2023-04-26T12:41:16.269Z,98590.88
2023-04-26T12:44:20.437Z,98599.06
2023-04-26T12:47:23.695Z,98583.50
2023-04-26T12:50:25.446Z,98587.25
2023-04-26T12:53:27.019Z,98582.00
2023-04-26T12:56:30.548Z,98582.72
2023-04-26T12:59:32.110Z,98587.38
2023-04-26T13:02:34.384Z,98586.59
2023-04-26T13:05:36.473Z,98593.31
2023-04-26T13:08:38.112Z,98595.09
2023-04-26T13:11:41.140Z,98596.28
2023-04-26T13:14:43.363Z,98594.97
2023-04-26T13:17:45.650Z,98587.09
2023-04-26T13:20:48.031Z,98592.88
2023-04-26T13:23:49.736Z,98594.97
2023-04-26T13:26:53.236Z,98594.00
2023-04-26T13:29:54.829Z,98595.06
2023-04-26T13:32:58.212Z,98600.53
2023-04-26T13:36:01.694Z,98598.97
2023-04-26T13:39:04.978Z,98601.75
2023-04-26T13:42:08.596Z,98598.28
2023-04-26T13:45:11.129Z,98597.41
2023-04-26T13:48:13.104Z,98596.72
2023-04-26T13:51:15.353Z,98595.00
2023-04-26T13:54:17.399Z,98597.13
2023-04-26T13:57:20.700Z,98595.63
2023-04-26T14:00:23.059Z,98595.56
2023-04-26T14:03:24.760Z,98600.06
2023-04-26T14:06:27.095Z,98599.94
2023-04-26T14:09:28.619Z,98597.19
2023-04-26T14:12:31.706Z,98596.59
2023-04-26T14:15:33.632Z,98594.41
2023-04-26T14:18:35.298Z,98601.72
2023-04-26T14:21:36.858Z,98592.78
2023-04-26T14:24:38.443Z,98595.63
2023-04-26T14:27:41.585Z,98598.97
2023-04-26T14:30:43.321Z,98601.63
2023-04-26T14:33:44.920Z,98596.31
2023-04-26T14:36:46.508Z,98604.09
2023-04-26T14:39:48.281Z,98604.50
2023-04-26T14:42:51.728Z,98598.53
2023-04-26T14:45:53.384Z,98594.38
2023-04-26T14:48:55.376Z,98596.81
2023-04-26T14:51:57.044Z,98598.34
2023-04-26T14:54:58.672Z,98600.41
2023-04-26T14:58:01.911Z,98599.13
2023-04-26T15:01:04.279Z,98593.81
2023-04-26T15:04:06.269Z,98596.59
2023-04-26T15:07:13.043Z,98589.88
2023-04-26T15:10:22.530Z,98579.38
2023-04-26T15:13:25.884Z,98579.47
2023-04-26T15:16:28.732Z,98575.25
2023-04-26T15:19:30.461Z,98583.81
2023-04-26T15:22:32.868Z,98578.41
2023-04-26T15:25:35.051Z,98590.03
2023-04-26T15:28:37.994Z,98582.22
2023-04-26T15:31:39.573Z,98586.44
2023-04-26T15:34:43.420Z,98574.41
2023-04-26T15:37:45.464Z,98579.22
2023-04-26T15:40:47.168Z,98585.38
2023-04-26T15:43:52.957Z,98573.16
2023-04-26T15:46:54.546Z,98572.69
2023-04-26T15:50:00.649Z,98579.63
2023-04-26T15:53:02.690Z,98587.13
2023-04-26T15:56:13.247Z,98580.06
2023-04-26T15:59:16.338Z,98585.69
2023-04-26T16:02:17.983Z,98581.28
2023-04-26T16:05:20.175Z,98581.34
2023-04-26T16:08:39.445Z,98573.50
2023-04-26T16:11:42.401Z,98576.41
2023-04-26T16:14:45.306Z,98575.78
2023-04-26T16:17:47.135Z,98576.91
2023-04-26T16:20:48.748Z,98575.59
2023-04-26T16:23:51.598Z,98573.19
2023-04-26T16:26:53.113Z,98568.66
2023-04-26T16:29:56.931Z,98576.69
2023-04-26T16:32:58.695Z,98577.41
2023-04-26T16:36:00.787Z,98569.94
2023-04-26T16:39:02.649Z,98577.34
2023-04-26T16:42:04.352Z,98568.63
2023-04-26T16:45:08.071Z,98574.91
2023-04-26T16:48:09.675Z,98573.94
2023-04-26T16:51:11.296Z,98576.75
2023-04-26T16:54:13.338Z,98577.69
2023-04-26T16:57:14.890Z,98574.91
2023-04-26T17:00:18.259Z,98575.03
2023-04-26T17:03:20.629Z,98578.38
2023-04-26T17:06:22.716Z,98584.56
2023-04-26T17:09:24.333Z,98583.00
2023-04-26T17:12:26.288Z,98585.63
2023-04-26T17:15:30.360Z,98588.88
2023-04-26T17:18:32.654Z,98592.25
2023-04-26T17:21:34.325Z,98581.28
2023-04-26T17:24:35.846Z,98591.84
2023-04-26T17:27:37.753Z,98593.88
2023-04-26T17:30:41.142Z,98588.47
2023-04-26T17:33:43.391Z,98585.13
2023-04-26T17:36:47.835Z,98591.66
2023-04-26T17:39:49.593Z,98594.72
2023-04-26T17:42:51.571Z,98597.53
2023-04-26T17:45:54.656Z,98600.34
2023-04-26T17:48:56.331Z,98600.41
2023-04-26T17:51:58.164Z,98591.66
2023-04-26T17:54:59.788Z,98598.75
2023-04-26T17:58:01.531Z,98597.88
2023-04-26T18:01:05.038Z,98595.41
2023-04-26T18:04:07.253Z,98599.03
2023-04-26T18:07:09.086Z,98592.84
2023-04-26T18:10:11.199Z,98601.72
2023-04-26T18:13:13.239Z,98599.84
2023-04-26T18:16:17.655Z,98604.38
2023-04-26T18:19:19.284Z,98606.97
2023-04-26T18:22:20.934Z,98607.94
2023-04-26T18:25:22.566Z,98611.50
2023-04-26T18:28:24.174Z,98614.06
2023-04-26T18:31:28.094Z,98613.25
2023-04-26T18:34:29.719Z,98618.56
2023-04-26T18:37:31.593Z,98621.38
2023-04-26T18:40:33.254Z,98622.59
2023-04-26T18:43:34.879Z,98624.41
2023-04-26T18:46:37.925Z,98630.72
2023-04-26T18:49:39.602Z,98624.78
2023-04-26T18:52:41.420Z,98626.69
2023-04-26T18:55:43.214Z,98629.59
2023-04-26T18:58:44.838Z,98634.16
2023-04-26T19:01:49.236Z,98626.34
2023-04-26T19:04:51.030Z,98630.78
2023-04-26T19:07:53.535Z,98630.78
2023-04-26T19:10:55.299Z,98639.66
2023-04-26T19:13:57.529Z,98642.34
2023-04-26T19:17:00.635Z,98651.22
2023-04-26T19:20:02.672Z,98647.75
2023-04-26T19:23:04.182Z,98651.34
2023-04-26T19:26:06.848Z,98654.84
2023-04-26T19:29:10.060Z,98649.59
2023-04-26T19:32:14.670Z,98660.25
2023-04-26T19:35:16.573Z,98654.91
2023-04-26T19:38:18.110Z,98657.59
2023-04-26T19:41:19.787Z,98654.13
2023-04-26T19:44:21.781Z,98648.78
2023-04-26T19:47:24.721Z,98658.47
2023-04-26T19:50:26.295Z,98662.19
2023-04-26T19:53:28.054Z,98660.50
2023-04-26T19:56:29.722Z,98657.94
2023-04-26T19:59:31.289Z,98660.59
2023-04-26T20:02:34.679Z,98669.50
2023-04-26T20:05:36.521Z,98665.03
2023-04-26T20:08:38.231Z,98670.22
2023-04-26T20:11:39.826Z,98666.09
2023-04-26T20:14:41.652Z,98667.00
2023-04-26T20:17:44.538Z,98676.00
2023-04-26T20:20:47.784Z,98676.16
2023-04-26T20:23:52.391Z,98679.81
2023-04-26T20:26:54.637Z,98673.72
2023-04-26T20:29:56.581Z,98675.50
2023-04-26T20:32:59.728Z,98679.94
2023-04-26T20:36:01.530Z,98678.16
2023-04-26T20:39:03.091Z,98676.38
2023-04-26T20:42:04.987Z,98672.69
2023-04-26T20:45:07.041Z,98684.13
2023-04-26T20:48:10.050Z,98675.53
2023-04-26T20:51:12.276Z,98680.03
2023-04-26T20:54:13.946Z,98676.47
2023-04-26T20:57:16.264Z,98674.66
2023-04-26T21:00:18.236Z,98675.41
2023-04-26T21:03:21.594Z,98677.25
2023-04-26T21:06:23.226Z,98677.19
2023-04-26T21:09:24.788Z,98679.72
2023-04-26T21:12:26.437Z,98690.41
2023-04-26T21:15:28.039Z,98685.31
2023-04-26T21:18:31.251Z,98684.38
2023-04-26T21:21:32.878Z,98687.88
2023-04-26T21:24:35.266Z,98694.91
2023-04-26T21:27:37.112Z,98684.31
2023-04-26T21:30:38.934Z,98688.81
2023-04-26T21:33:42.360Z,98685.41
2023-04-26T21:36:43.968Z,98676.56
2023-04-26T21:39:45.680Z,98680.31
2023-04-26T21:42:57.973Z,98682.88
2023-04-26T21:46:08.094Z,98678.44
2023-04-26T21:49:12.003Z,98682.09
2023-04-26T21:52:14.165Z,98682.91
2023-04-26T21:55:16.116Z,98680.44
2023-04-26T21:58:18.019Z,98675.19
2023-04-26T22:01:19.794Z,98676.09
2023-04-26T22:04:22.914Z,98679.97
2023-04-26T22:07:24.836Z,98675.81
2023-04-26T22:10:26.985Z,98684.81
2023-04-26T22:13:28.922Z,98678.72
2023-04-26T22:16:30.457Z,98678.91
2023-04-26T22:19:33.639Z,98678.47
2023-04-26T22:22:35.257Z,98690.19
2023-04-26T22:25:36.941Z,98692.16
2023-04-26T22:28:48.752Z,98682.72
2023-04-26T22:31:51.645Z,98688.94
2023-04-26T22:34:54.639Z,98694.41
2023-04-26T22:37:56.545Z,98687.53
2023-04-26T22:40:58.601Z,98692.09
2023-04-26T22:44:00.173Z,98687.81
2023-04-26T22:47:01.696Z,98695.81
2023-04-26T22:50:05.478Z,98695.84
2023-04-26T22:53:07.132Z,98696.53
2023-04-26T22:56:08.912Z,98698.31
2023-04-26T22:59:11.736Z,98699.13
2023-04-26T23:02:15.767Z,98700.16
2023-04-26T23:05:18.844Z,98697.72
2023-04-26T23:08:20.552Z,98706.53
2023-04-26T23:11:22.193Z,98705.47
2023-04-26T23:14:23.748Z,98710.94
2023-04-26T23:17:26.741Z,98706.38
2023-04-26T23:20:30.084Z,98714.06
2023-04-26T23:23:31.785Z,98714.84
2023-04-26T23:26:33.278Z,98713.06
2023-04-26T23:29:34.979Z,98715.66
2023-04-26T23:32:36.847Z,98723.50
2023-04-26T23:35:42.108Z,98720.91
2023-04-26T23:38:43.685Z,98714.81
2023-04-26T23:41:45.285Z,98714.84
2023-04-26T23:44:46.912Z,98719.31
2023-04-26T23:47:48.826Z,98719.34
2023-04-26T23:50:51.912Z,98722.00
2023-04-26T23:53:53.539Z,98724.69
2023-04-26T23:56:55.117Z,98727.34
2023-04-26T23:59:56.700Z,98718.59
